Impacts METAR Board
IDs:

KMEM - Memphis Intl, TN, US

Updated at: 1800 UTC 24 Sep 2018
Potential Impact None Slight Moderate High
Time 24/06Z 24/07Z 24/08Z 24/09Z 24/10Z 24/11Z 24/12Z 24/13Z 24/14Z 24/15Z 24/16Z 24/17Z 24/18Z
Temp73 73 73 72 72 73 73 73 74 74 77 79 77
Dewpt72 72 72 72 72 73 73 73 73 74 75 76 75
Altim29.96 29.96 29.95 29.95 29.95 29.95 29.96 29.98 29.98 29.98 29.99 29.99 29.97
VIS10 9 10 8 5 6 8 2 10 6 10 10 4
CIG110 75 35 40 60 80 28 13 95 60 9 30 16
CoverOVCOVCOVCOVCOVCOVCOVCOVCBKNOVCOVCOVCOVC
FltCatVFRVFRVFRVFRMVFRVFRMVFRIFRVFRVFRIFRMVFRMVFR
WX---RA-RA-RARA BR-RA BRRA+RA BR---RA BR-----RA BR
WDir1701701101301301301501601401401601600
WSpd4 3 4 3 4 4 3 7 6 6 7 6 3
WGst-- -- -- -- -- -- -- -- -- -- -- -- --
Raw hourly METARs
KMEM 240554Z 17004KT 10SM FEW008 BKN110 OVC130 23/22 A2996 RMK AO2 SLP142 60003 T02280222 10233 20222 402560194 58001
KMEM 240654Z 17003KT 9SM -RA FEW008 BKN075 OVC100 23/22 A2996 RMK AO2 RAB15 SLP142 P0000 T02280222
KMEM 240754Z 11004KT 10SM -RA FEW007 SCT029 OVC035 23/22 A2995 RMK AO2 SLP136 P0003 T02280222
KMEM 240854Z 13003KT 8SM -RA FEW007 SCT033 BKN040 OVC130 22/22 A2995 RMK AO2 RAE09B30 SLP136 P0002 60005 T02220222 58004
KMEM 240954Z 13004KT 5SM RA BR BKN060 OVC080 22/22 A2995 RMK AO2 SLP137 P0008 T02220222
KMEM 241054Z 13004KT 6SM -RA BR FEW034 SCT040 OVC080 23/23 A2995 RMK AO2 SLP138 P0006 T02280228
KMEM 241154Z 15003KT 8SM RA SCT018 BKN028 OVC060 23/23 A2996 RMK AO2 SLP143 P0040 60059 70080 T02280228 10228 20222 53006
KMEM 241300Z 16007KT 2SM R36L/5000VP6000FT +RA BR SCT009 BKN013 OVC032 23/23 A2998 RMK AO2 P0007 T02280228
KMEM 241404Z 14006KT 10SM FEW006 SCT050 BKN095 23/23 A2998 RMK AO2 T02330228
KMEM 241454Z 14006KT 6SM -RA BR FEW009 BKN060 OVC090 23/23 A2998 RMK AO2 RAB27 SLP149 P0003 60034 T02330233 51002
KMEM 241554Z 16007KT 10SM BKN009 BKN045 OVC100 25/24 A2999 RMK AO2 RAE16 SLP150 P0000 T02500239
KMEM 241654Z 16006KT 10SM FEW010 SCT020 OVC030 26/24 A2999 RMK AO2 SLP150 T02610244
KMEM 241754Z VRB03KT 4SM R36L/4000VP6000FT -RA BR SCT007 BKN016 OVC045 25/24 A2997 RMK AO2 RAB26 SLP145 VIS LWR E-S P0003 60037 T02500239 10267 20228 58003



Page loaded:  18:10 UTC  |   11:10 AM Pacific  |   12:10 PM Mountain  |   01:10 PM Central  |   02:10 PM Eastern

 

ADVISORIES

FORECASTS

FORECASTS

OBSERVATIONS

USER TOOLS

ABOUT US